Weather reports worldwide

Advertisment
Madrid, Spain (8222): temperature & dewpoint: 19.06.2018 04:00:00 - 25.06.2018 04:00:00 (CEST)Madrid, Spain (8222): wind speed & gusts: 19.06.2018 04:00:00 - 25.06.2018 04:00:00 (CEST)Madrid, Spain (8222): wind direction: 19.06.2018 04:00:00 - 25.06.2018 04:00:00 (CEST)Madrid, Spain (8222): reduced air pressure: 19.06.2018 04:00:00 - 25.06.2018 04:00:00 (CEST)Madrid, Spain (8222): precipitation: 19.06.2018 04:00:00 - 25.06.2018 04:00:00 (CEST)
Date & Time tt [°C] td [°C] ff [km/h] ff [kn] fx [km/h] fx [kn] dd ppp [hPa] rr [mm]
25.06.2018 04:00:00 - - - - - - - - -
25.06.2018 03:00:00 25,8 12,2 5 3 29 16 NE 1012,4 0,0
25.06.2018 02:00:00 26,9 13,3 9 5 25 13 NE 1011,9 -
25.06.2018 01:00:00 27,2 12,8 12 6 28 15 NE 1011,8 0,0
25.06.2018 00:00:00 30,0 13,3 11 6 25 14 NE 1010,9 0,0
24.06.2018 23:00:00 31,1 14,2 9 5 23 12 NE 1010,3 0,0
24.06.2018 22:00:00 31,9 14,5 9 5 18 10 NE 1009,7 0,0
24.06.2018 21:00:00 32,6 14,2 4 2 13 7 NE 1008,8 0,0
24.06.2018 20:00:00 34,3 13,8 4 2 14 8 N 1008,5 -
24.06.2018 19:00:00 35,1 13,9 3 1 14 8 NNW 1008,3 0,0
24.06.2018 18:00:00 35,9 15,1 5 3 18 10 W 1008,8 0,0
24.06.2018 17:00:00 36,4 16,6 3 2 14 8 ENE 1009,0 0,0
24.06.2018 16:00:00 35,4 17,1 3 2 13 7 WSW 1009,9 0,0
24.06.2018 15:00:00 34,8 17,5 2 1 12 7 W 1010,7 0,0
24.06.2018 14:00:00 32,8 17,1 5 3 11 6 SE 1011,7 -
24.06.2018 13:00:00 31,2 16,4 5 3 12 6 E 1012,5 0,0
24.06.2018 12:00:00 28,9 15,8 2 1 11 6 ESE 1013,1 0,0
24.06.2018 11:00:00 26,7 14,8 5 3 13 7 E 1013,8 0,0
24.06.2018 10:00:00 24,9 14,3 7 4 12 7 ESE 1014,6 0,0
24.06.2018 09:00:00 22,9 13,1 7 4 15 8 E 1013,9 0,0
24.06.2018 08:00:00 22,0 12,2 5 3 15 8 NE 1013,9 -
24.06.2018 07:00:00 22,1 11,8 6 3 14 7 ENE 1014,1 0,0
24.06.2018 06:00:00 22,8 11,8 7 4 19 10 NE 1014,4 0,0
24.06.2018 05:00:00 23,7 12,0 10 5 19 10 NE 1013,5 0,0
24.06.2018 04:00:00 24,5 12,7 5 3 19 10 E 1013,1 0,0
24.06.2018 03:00:00 25,4 12,6 8 4 22 12 ENE 1013,1 0,0
24.06.2018 02:00:00 26,2 13,0 9 5 26 14 NE 1012,9 -
24.06.2018 01:00:00 27,4 13,0 14 7 31 17 NE 1012,6 0,0
24.06.2018 00:00:00 28,5 13,6 13 7 25 14 NE 1012,0 0,0
23.06.2018 23:00:00 29,7 13,5 8 4 23 12 NE 1011,7 0,0
23.06.2018 22:00:00 29,7 12,1 8 4 19 10 NE 1011,3 0,0
23.06.2018 21:00:00 31,8 12,5 6 3 10 5 E 1010,5 0,0
23.06.2018 20:00:00 33,4 13,0 1 1 10 6 WSW 1010,1 -
23.06.2018 19:00:00 34,1 13,0 6 3 18 10 NNE 1009,9 0,0
23.06.2018 18:00:00 34,8 13,6 2 1 15 8 W 1009,9 0,0
23.06.2018 17:00:00 35,1 13,9 3 1 13 7 NNE 1010,4 0,0
23.06.2018 16:00:00 34,0 13,5 4 2 16 9 WNW 1011,3 0,0
23.06.2018 15:00:00 34,6 16,0 5 3 16 9 SSW 1011,6 0,0
23.06.2018 14:00:00 33,1 16,5 4 2 14 8 SSE 1012,7 -
23.06.2018 13:00:00 32,2 16,5 4 2 14 8 E 1013,5 0,0
23.06.2018 12:00:00 30,1 16,5 5 3 14 7 E 1014,1 0,0
23.06.2018 11:00:00 27,1 15,2 4 2 15 8 ENE 1014,8 0,0
23.06.2018 10:00:00 25,3 14,7 7 4 15 8 E 1015,5 0,0
23.06.2018 09:00:00 22,9 15,0 7 4 17 9 ENE 1015,2 0,0
23.06.2018 08:00:00 21,7 14,6 6 4 15 8 NE 1015,4 -
23.06.2018 07:00:00 21,6 14,2 11 6 23 12 NE 1015,1 0,0
23.06.2018 06:00:00 22,2 14,3 10 6 23 13 NE 1013,7 0,0
23.06.2018 05:00:00 23,1 14,9 13 7 24 13 NE 1014,4 0,0
23.06.2018 04:00:00 23,5 15,0 10 6 24 13 NE 1014,8 0,0
23.06.2018 03:00:00 24,0 15,0 11 6 26 14 NE 1014,4 0,0
23.06.2018 02:00:00 25,1 15,2 12 7 27 15 NE 1014,1 -
23.06.2018 01:00:00 26,1 15,2 12 7 27 15 NE 1013,8 0,0
23.06.2018 00:00:00 27,1 14,5 11 6 30 16 NE 1013,6 0,0
22.06.2018 23:00:00 27,4 11,4 3 2 7 4 ENE 1012,8 0,0
22.06.2018 22:00:00 28,3 11,3 3 2 7 4 E 1012,3 0,0
22.06.2018 21:00:00 30,2 12,1 4 2 10 6 ESE 1011,4 0,0
22.06.2018 20:00:00 31,9 12,2 3 1 19 10 E 1011,1 -
22.06.2018 19:00:00 32,2 13,0 5 3 14 8 E 1011,2 0,0
22.06.2018 18:00:00 32,7 12,8 6 3 20 11 ENE 1011,5 0,0
22.06.2018 17:00:00 33,2 13,3 5 3 19 10 ENE 1011,8 0,0
22.06.2018 16:00:00 32,8 14,4 6 3 22 12 N 1012,4 0,0
22.06.2018 15:00:00 32,8 14,9 7 4 22 12 SSE 1012,9 0,0
22.06.2018 14:00:00 32,1 14,7 4 2 19 11 E 1013,9 -
22.06.2018 13:00:00 31,1 15,1 7 4 18 10 ESE 1014,3 0,0
22.06.2018 12:00:00 29,6 15,0 4 2 14 8 SE 1014,9 0,0
22.06.2018 11:00:00 27,1 13,8 7 4 13 7 E 1015,8 0,0
22.06.2018 10:00:00 25,4 13,6 5 3 16 9 E 1016,0 0,0
22.06.2018 09:00:00 22,7 12,3 7 4 19 11 NE 1016,4 0,0
22.06.2018 08:00:00 21,9 11,3 10 6 24 13 NE 1016,3 -
22.06.2018 07:00:00 21,8 10,3 8 4 16 9 NE 1016,2 0,0
22.06.2018 06:00:00 22,2 10,0 9 5 16 9 NE 1015,7 0,0
22.06.2018 05:00:00 22,7 9,8 8 5 18 10 NE 1014,4 0,0
22.06.2018 04:00:00 23,0 10,0 9 5 17 9 NE 1015,2 0,0
22.06.2018 03:00:00 24,0 9,9 6 3 14 8 E 1015,2 0,0
22.06.2018 02:00:00 24,1 10,0 7 4 10 6 E 1015,5 -
22.06.2018 01:00:00 24,0 9,9 4 2 8 5 SSE 1015,2 0,0
22.06.2018 00:00:00 24,9 10,4 5 3 11 6 S 1014,5 0,0
21.06.2018 23:00:00 26,0 10,2 6 4 16 9 S 1014,0 0,0
21.06.2018 22:00:00 28,3 10,0 7 4 15 8 SSE 1012,8 0,0
21.06.2018 21:00:00 30,1 10,6 8 5 18 10 ESE 1012,3 0,0
21.06.2018 20:00:00 31,1 11,0 9 5 20 11 SE 1012,2 -
21.06.2018 19:00:00 31,6 10,9 9 5 23 12 E 1012,1 0,0
21.06.2018 18:00:00 32,6 12,2 8 4 22 12 SE 1012,2 0,0
21.06.2018 17:00:00 32,8 12,4 9 5 22 12 ENE 1012,4 0,0
21.06.2018 16:00:00 32,5 13,2 8 4 23 13 E 1013,2 0,0
21.06.2018 15:00:00 31,7 13,9 5 3 18 10 ENE 1013,9 0,0
21.06.2018 14:00:00 30,6 13,4 10 5 25 13 SE 1014,5 -
21.06.2018 13:00:00 29,8 12,6 5 3 16 9 E 1015,1 0,0
21.06.2018 12:00:00 28,0 12,3 3 2 13 7 S 1015,7 0,0
21.06.2018 11:00:00 26,4 11,3 6 3 16 9 SSW 1015,9 0,0
21.06.2018 10:00:00 24,8 12,7 3 2 14 7 S 1016,3 0,0
21.06.2018 09:00:00 22,6 13,9 5 3 10 6 E 1016,7 0,0
21.06.2018 08:00:00 20,6 12,3 2 1 6 4 E 1016,7 -
21.06.2018 07:00:00 20,8 11,1 3 2 9 5 E 1016,5 0,0
21.06.2018 06:00:00 21,4 10,5 5 3 11 6 E 1016,3 0,0
21.06.2018 05:00:00 22,2 10,3 7 4 15 8 E 1015,9 0,0
21.06.2018 04:00:00 22,8 10,5 8 4 13 7 E 1015,0 0,0
21.06.2018 03:00:00 23,5 10,9 6 3 22 12 ESE 1016,1 0,0
21.06.2018 02:00:00 25,0 11,9 10 6 32 17 E 1015,5 -
21.06.2018 01:00:00 26,3 12,3 6 3 23 12 S 1014,2 0,0
21.06.2018 00:00:00 27,2 13,9 7 4 21 11 ESE 1013,8 0,0
20.06.2018 23:00:00 26,8 12,4 3 2 6 4 ESE 1013,3 0,0
20.06.2018 22:00:00 28,1 12,4 4 2 10 6 ESE 1012,4 0,0
20.06.2018 21:00:00 29,7 13,1 4 2 14 7 SE 1011,7 0,0
20.06.2018 20:00:00 31,1 13,9 5 3 16 9 E 1011,5 -
20.06.2018 19:00:00 31,7 13,9 5 3 17 9 S 1011,3 0,0
20.06.2018 18:00:00 32,4 15,0 8 4 19 10 ESE 1011,6 0,0
20.06.2018 17:00:00 32,6 15,2 6 3 14 8 E 1011,9 0,0
20.06.2018 16:00:00 32,1 14,7 4 2 15 8 SSW 1012,8 0,0
20.06.2018 15:00:00 32,0 14,6 7 4 - - SE 1013,1 -
20.06.2018 14:00:00 30,3 13,9 3 2 18 10 SSE 1014,2 -
20.06.2018 13:00:00 29,4 15,2 6 3 13 7 E 1015,0 0,0
20.06.2018 12:00:00 27,3 14,3 7 4 16 9 SE 1015,8 0,0
20.06.2018 11:00:00 25,9 14,7 8 4 19 10 E 1016,4 0,0
20.06.2018 10:00:00 23,9 13,8 10 5 19 11 E 1016,7 0,0
20.06.2018 09:00:00 21,6 13,0 6 3 18 10 ENE 1017,1 0,0
20.06.2018 08:00:00 20,1 11,6 9 5 20 11 NE 1017,4 -
20.06.2018 07:00:00 20,3 11,2 9 5 21 11 ENE 1017,2 0,0
20.06.2018 06:00:00 21,0 11,0 8 4 17 9 E 1016,8 0,0
20.06.2018 05:00:00 21,7 11,1 8 5 19 11 E 1016,6 0,0
20.06.2018 04:00:00 22,4 11,1 9 5 20 11 E 1016,3 0,0
20.06.2018 03:00:00 23,1 11,4 5 3 15 8 ESE 1015,6 0,0
20.06.2018 02:00:00 24,0 11,0 7 4 15 8 SSE 1016,4 -
20.06.2018 01:00:00 25,1 10,9 8 4 17 9 S 1015,5 0,0
20.06.2018 00:00:00 26,1 11,4 7 4 16 9 SSE 1014,9 0,0
19.06.2018 23:00:00 27,1 12,0 5 3 16 9 E 1014,3 0,0
19.06.2018 22:00:00 28,3 13,1 5 3 11 6 NE 1013,4 0,0
19.06.2018 21:00:00 29,6 13,4 2 1 8 4 ENE 1012,9 0,0
19.06.2018 20:00:00 30,1 13,9 5 3 11 6 E 1012,9 -
19.06.2018 19:00:00 30,9 14,0 6 3 12 7 E 1012,7 0,0
19.06.2018 18:00:00 31,8 14,4 8 4 16 9 S 1013,1 0,0
19.06.2018 17:00:00 31,8 14,4 1 1 15 8 N 1013,5 0,0
19.06.2018 16:00:00 32,1 14,7 5 3 16 9 SSE 1013,9 0,0
19.06.2018 15:00:00 31,1 14,7 1 0 20 11 ESE 1014,7 0,0
19.06.2018 14:00:00 29,6 14,1 3 1 18 10 ENE 1015,6 -
19.06.2018 13:00:00 28,1 13,7 8 4 19 10 E 1016,6 0,0
19.06.2018 12:00:00 26,7 13,5 9 5 18 10 ESE 1017,5 0,0
19.06.2018 11:00:00 24,5 12,4 5 3 22 12 E 1017,8 0,0
19.06.2018 10:00:00 21,7 11,4 8 4 24 13 ENE 1018,9 0,0
19.06.2018 09:00:00 19,0 10,0 12 6 28 15 NE 1019,4 0,0
19.06.2018 08:00:00 17,7 9,0 14 8 29 16 NE 1019,5 -
19.06.2018 07:00:00 17,4 9,0 13 7 29 16 NE 1019,4 0,0
19.06.2018 06:00:00 17,8 9,2 15 8 29 16 NE 1019,2 0,0
19.06.2018 05:00:00 18,1 8,7 13 7 28 15 NE 1019,5 0,0
19.06.2018 04:00:00 18,9 8,5 12 7 27 15 NE 1019,2 0,0

tt = temperature
td = dewpoint
ff = wind speed
fx = gusts
dd = wind direction
ppp = reduced air pressure
rr = precipitation

Next stations